Time;durP1;ratioP1;P1;durP2;ratioP2;P2;SDS_P1;SDS_P2;PMS_P1;PMS_P2;Temp;Humidity;BMP_temperature;BMP_pressure;BME280_temperature;BME280_humidity;BME280_pressure;Samples;Min_cycle;Max_cycle;Signal;HPM_P1;HPM_P2
2024/01/27 00:02:48;;;;;;;28.77;5.85;;;;;;;4.01;100.00;103392.44;10412075;28;20106;-67
2024/01/27 00:07:49;;;;;;;17.23;6.38;;;;;;;4.00;100.00;103388.91;10415763;28;20457;-67
2024/01/27 00:12:49;;;;;;;18.42;5.85;;;;;;;3.93;100.00;103383.06;10415496;28;20052;-66
2024/01/27 00:17:49;;;;;;;19.35;5.55;;;;;;;3.94;100.00;103391.97;10413097;28;20124;-68
2024/01/27 00:22:50;;;;;;;27.35;7.88;;;;;;;3.93;100.00;103383.06;10410013;28;20168;-66
2024/01/27 00:27:50;;;;;;;10.25;4.82;;;;;;;3.94;100.00;103391.97;10426623;28;20178;-67
2024/01/27 00:32:51;;;;;;;28.08;5.93;;;;;;;3.90;100.00;103395.78;10409408;28;20038;-67
2024/01/27 00:37:51;;;;;;;13.43;4.95;;;;;;;4.00;100.00;103386.22;10410676;28;20041;-67
2024/01/27 00:42:51;;;;;;;10.05;4.93;;;;;;;3.97;100.00;103392.63;10392596;28;20370;-66
2024/01/27 00:47:52;;;;;;;25.48;6.47;;;;;;;3.90;100.00;103390.44;10410338;28;20053;-66
2024/01/27 00:52:52;;;;;;;21.30;6.07;;;;;;;3.92;100.00;103399.22;10408432;28;20084;-67
2024/01/27 00:57:53;;;;;;;16.63;5.55;;;;;;;3.90;100.00;103404.69;10409065;28;20038;-66
2024/01/27 01:02:54;;;;;;;11.82;5.35;;;;;;;3.92;100.00;103404.59;10410157;28;20111;-68
2024/01/27 01:07:54;;;;;;;21.95;5.80;;;;;;;3.85;100.00;103398.72;10411491;28;20042;-68
2024/01/27 01:12:55;;;;;;;27.92;7.38;;;;;;;3.77;100.00;103409.06;10412147;28;20072;-66
2024/01/27 01:17:55;;;;;;;14.48;5.72;;;;;;;3.72;100.00;103409.31;10410837;28;20030;-67
2024/01/27 01:22:55;;;;;;;21.85;4.78;;;;;;;3.68;100.00;103396.22;10407611;28;20061;-67
2024/01/27 01:27:56;;;;;;;7.95;4.00;;;;;;;3.58;100.00;103405.75;10409672;28;20041;-66
2024/01/27 01:32:57;;;;;;;26.63;5.72;;;;;;;3.64;100.00;103400.91;10409000;28;20162;-67
2024/01/27 01:37:57;;;;;;;22.98;6.47;;;;;;;3.64;100.00;103400.03;10407575;28;20033;-66
2024/01/27 01:42:58;;;;;;;17.52;5.03;;;;;;;3.62;100.00;103397.44;10408455;28;20393;-66
2024/01/27 01:47:59;;;;;;;25.25;6.13;;;;;;;3.58;100.00;103385.19;10408431;28;20053;-67
2024/01/27 01:52:59;;;;;;;16.88;5.05;;;;;;;3.55;100.00;103405.94;10406343;28;20065;-67
2024/01/27 01:58:00;;;;;;;23.27;6.35;;;;;;;3.52;100.00;103400.75;10407049;28;20053;-67
2024/01/27 02:03:00;;;;;;;15.68;5.25;;;;;;;3.50;100.00;103407.03;10408699;28;20103;-65
2024/01/27 02:08:04;;;;;;;23.95;6.47;;;;;;;3.48;100.00;103411.66;10407260;28;20029;-66
2024/01/27 02:13:14;;;;;;;8.18;3.40;;;;;;;3.50;100.00;103422.25;10408569;28;20037;-67
2024/01/27 02:18:15;;;;;;;12.85;5.22;;;;;;;3.44;100.00;103414.56;10440409;28;20389;-66
2024/01/27 02:23:15;;;;;;;12.65;5.53;;;;;;;3.41;100.00;103414.75;10406408;28;20057;-67
2024/01/27 02:28:16;;;;;;;8.50;4.63;;;;;;;3.42;100.00;103420.03;10409545;28;20117;-67
2024/01/27 02:33:16;;;;;;;11.55;5.90;;;;;;;3.46;100.00;103410.00;10415209;28;20033;-67
2024/01/27 02:38:16;;;;;;;25.95;6.03;;;;;;;3.44;100.00;103411.91;10433895;28;20087;-66
2024/01/27 02:43:17;;;;;;;13.18;3.75;;;;;;;3.33;100.00;103415.22;10419125;28;20133;-67
2024/01/27 02:48:17;;;;;;;19.80;4.70;;;;;;;3.24;100.00;103405.88;10415444;28;20053;-66
2024/01/27 02:53:18;;;;;;;13.43;5.85;;;;;;;3.17;100.00;103407.19;10414375;28;20098;-69
2024/01/27 02:58:18;;;;;;;13.57;5.57;;;;;;;3.05;100.00;103402.53;10413245;28;20041;-68
2024/01/27 03:03:18;;;;;;;9.82;5.20;;;;;;;3.12;100.00;103417.28;10414370;28;20034;-66
2024/01/27 03:08:19;;;;;;;19.60;8.32;;;;;;;3.18;100.00;103418.75;10414619;28;20063;-66
2024/01/27 03:13:19;;;;;;;24.65;5.70;;;;;;;3.08;100.00;103428.25;10412716;28;20124;-68
2024/01/27 03:18:20;;;;;;;15.40;5.18;;;;;;;3.00;100.00;103431.38;10429075;28;20041;-67
2024/01/27 03:23:20;;;;;;;11.77;6.53;;;;;;;2.85;100.00;103422.38;10429028;28;20041;-67
2024/01/27 03:28:21;;;;;;;22.20;6.68;;;;;;;2.85;100.00;103411.69;10412451;28;20401;-67
2024/01/27 03:33:22;;;;;;;12.32;5.80;;;;;;;2.83;100.00;103426.94;10412421;28;20482;-66
2024/01/27 03:38:23;;;;;;;13.45;4.72;;;;;;;2.91;100.00;103426.53;10412606;28;20037;-68
2024/01/27 03:43:23;;;;;;;15.60;6.40;;;;;;;2.86;100.00;103424.09;10414094;28;20069;-67
2024/01/27 03:48:24;;;;;;;23.70;6.57;;;;;;;2.74;100.00;103425.66;10413165;28;20073;-66
2024/01/27 03:53:25;;;;;;;10.77;6.55;;;;;;;2.63;100.00;103406.66;10445637;28;20037;-67
2024/01/27 03:58:26;;;;;;;19.55;7.25;;;;;;;2.60;100.00;103412.16;10414617;28;20116;-66
2024/01/27 04:03:26;;;;;;;23.92;8.30;;;;;;;2.64;100.00;103411.03;10414615;28;20145;-67
2024/01/27 04:08:27;;;;;;;16.17;8.00;;;;;;;2.61;100.00;103419.22;10412214;28;20490;-67
2024/01/27 04:13:27;;;;;;;15.07;9.35;;;;;;;2.60;100.00;103443.41;10412370;28;20456;-68
2024/01/27 04:18:28;;;;;;;23.95;7.75;;;;;;;2.66;100.00;103435.06;10411532;28;20037;-68
2024/01/27 04:23:28;;;;;;;23.40;9.43;;;;;;;2.62;100.00;103441.53;10409691;28;20151;-67
2024/01/27 04:28:30;;;;;;;24.10;12.65;;;;;;;2.70;100.00;103441.97;10410803;28;20060;-66
2024/01/27 04:33:30;;;;;;;25.02;9.85;;;;;;;2.67;100.00;103418.03;10411015;28;20357;-66
2024/01/27 04:38:31;;;;;;;17.05;10.77;;;;;;;2.67;100.00;103423.41;10409516;28;20034;-68
2024/01/27 04:43:31;;;;;;;30.10;11.02;;;;;;;2.72;100.00;103416.00;10410549;28;20578;-66
2024/01/27 04:48:31;;;;;;;19.85;9.82;;;;;;;2.70;100.00;103412.53;10410586;28;20229;-66
2024/01/27 04:53:32;;;;;;;17.67;9.65;;;;;;;2.64;100.00;103424.41;10409362;28;20120;-67
2024/01/27 04:58:33;;;;;;;10.82;7.10;;;;;;;2.61;100.00;103423.72;10410504;28;20136;-68
2024/01/27 05:03:33;;;;;;;21.70;7.93;;;;;;;2.72;100.00;103416.84;10414423;28;20124;-67
2024/01/27 05:08:35;;;;;;;20.15;8.52;;;;;;;2.74;100.00;103431.03;10394589;28;20057;-67
2024/01/27 05:13:35;;;;;;;12.05;8.88;;;;;;;2.74;100.00;103419.44;10411561;28;20481;-67
2024/01/27 05:18:36;;;;;;;17.70;8.55;;;;;;;2.72;100.00;103429.38;10409497;28;20034;-65
2024/01/27 05:23:36;;;;;;;27.35;8.70;;;;;;;2.66;100.00;103433.22;10408952;28;20108;-66
2024/01/27 05:28:37;;;;;;;27.77;10.48;;;;;;;2.61;100.00;103418.38;10408094;28;20075;-66
2024/01/27 05:33:39;;;;;;;16.08;8.23;;;;;;;2.66;100.00;103425.22;10409095;28;20079;-66
2024/01/27 05:38:39;;;;;;;18.88;9.30;;;;;;;2.66;100.00;103429.69;10407996;28;20037;-66
2024/01/27 05:43:40;;;;;;;19.15;9.45;;;;;;;2.61;100.00;103431.75;10390958;28;20072;-67
2024/01/27 05:48:40;;;;;;;16.50;10.25;;;;;;;2.66;100.00;103437.72;10408613;28;20045;-67
2024/01/27 05:53:41;;;;;;;19.52;10.20;;;;;;;2.66;100.00;103427.03;10408259;28;20440;-66
2024/01/27 05:58:41;;;;;;;20.90;10.63;;;;;;;2.62;100.00;103420.13;10408452;28;20065;-66
2024/01/27 06:03:42;;;;;;;16.20;9.68;;;;;;;2.75;100.00;103413.16;10410944;28;20040;-67
2024/01/27 06:08:43;;;;;;;15.27;9.23;;;;;;;2.73;100.00;103413.22;10416521;28;20591;-66
2024/01/27 06:13:47;;;;;;;12.38;9.13;;;;;;;2.68;100.00;103415.31;10415111;28;20072;-67
2024/01/27 06:18:48;;;;;;;23.65;11.65;;;;;;;2.63;100.00;103405.78;10414677;28;20373;-67
2024/01/27 06:23:48;;;;;;;18.98;8.90;;;;;;;2.60;100.00;103406.81;10414124;28;20037;-66
2024/01/27 06:28:49;;;;;;;21.85;11.23;;;;;;;2.58;100.00;103423.88;10398181;28;20423;-66
2024/01/27 06:33:49;;;;;;;35.45;12.38;;;;;;;2.65;100.00;103436.88;10415554;28;20099;-67
2024/01/27 06:38:50;;;;;;;13.20;11.45;;;;;;;2.69;100.00;103442.91;10415623;28;20508;-67
2024/01/27 06:43:50;;;;;;;12.75;11.02;;;;;;;2.72;100.00;103440.94;10415394;28;20041;-65
2024/01/27 06:48:51;;;;;;;24.27;12.18;;;;;;;2.80;100.00;103445.84;10413222;28;20057;-68
2024/01/27 06:53:51;;;;;;;21.50;11.90;;;;;;;2.73;100.00;103439.13;10414545;28;20191;-67
2024/01/27 06:58:52;;;;;;;25.58;13.68;;;;;;;2.73;100.00;103445.31;10414559;28;20385;-66
2024/01/27 07:03:52;;;;;;;14.18;11.40;;;;;;;2.74;100.00;103451.53;10414838;28;20040;-66
2024/01/27 07:08:52;;;;;;;19.73;13.52;;;;;;;2.73;100.00;103455.16;10414368;28;20048;-67
2024/01/27 07:13:53;;;;;;;19.30;13.88;;;;;;;2.56;100.00;103442.72;10413530;28;20044;-68
2024/01/27 07:18:53;;;;;;;23.42;13.65;;;;;;;2.46;100.00;103447.69;10429110;28;20041;-68
2024/01/27 07:23:53;;;;;;;21.25;12.18;;;;;;;2.38;100.00;103449.03;10413364;28;20033;-65
2024/01/27 07:28:54;;;;;;;24.83;14.48;;;;;;;2.45;100.00;103445.09;10429917;28;20033;-66
2024/01/27 07:33:54;;;;;;;28.17;16.30;;;;;;;2.41;100.00;103455.09;10417981;28;20041;-66
2024/01/27 07:38:55;;;;;;;17.80;11.50;;;;;;;2.41;100.00;103454.22;10419211;28;20111;-67
2024/01/27 07:43:55;;;;;;;33.45;14.13;;;;;;;2.47;100.00;103445.88;10413837;28;20099;-66
2024/01/27 07:48:56;;;;;;;21.13;13.40;;;;;;;2.60;100.00;103448.75;10412727;28;20140;-67
2024/01/27 07:53:56;;;;;;;39.97;15.60;;;;;;;2.77;100.00;103446.00;10357440;28;20054;-66
2024/01/27 07:58:56;;;;;;;21.02;13.82;;;;;;;2.94;100.00;103432.59;10371799;28;20045;-66
2024/01/27 08:03:57;;;;;;;21.73;13.65;;;;;;;3.08;100.00;103438.97;10371349;28;20569;-67
2024/01/27 08:08:57;;;;;;;18.95;15.60;;;;;;;3.31;100.00;103448.38;10371006;28;20125;-68
2024/01/27 08:13:58;;;;;;;27.10;15.07;;;;;;;3.76;100.00;103449.34;10402804;28;20069;-66
2024/01/27 08:18:58;;;;;;;34.38;15.93;;;;;;;4.28;100.00;103460.50;10402959;28;20281;-67
2024/01/27 08:23:58;;;;;;;32.97;13.75;;;;;;;4.72;100.00;103466.75;10368830;28;20124;-67
2024/01/27 08:28:59;;;;;;;42.63;16.58;;;;;;;5.20;100.00;103467.25;10369212;28;20033;-67
2024/01/27 08:33:59;;;;;;;31.70;16.67;;;;;;;5.60;100.00;103477.13;10369638;28;20034;-67
2024/01/27 08:39:00;;;;;;;41.55;17.42;;;;;;;5.78;100.00;103480.44;10368562;28;20543;-69
2024/01/27 08:44:00;;;;;;;27.08;12.55;;;;;;;6.09;100.00;103480.22;10402050;28;20125;-66
2024/01/27 08:49:00;;;;;;;31.67;13.07;;;;;;;6.24;100.00;103488.09;10370230;28;20145;-67
2024/01/27 08:54:01;;;;;;;11.88;10.75;;;;;;;6.62;100.00;103472.94;10369201;28;20052;-66
2024/01/27 08:59:01;;;;;;;22.33;11.77;;;;;;;7.13;100.00;103467.47;10367825;28;20034;-69
2024/01/27 09:04:02;;;;;;;17.65;9.60;;;;;;;7.21;100.00;103468.66;10368645;28;20029;-69
2024/01/27 09:09:02;;;;;;;17.38;9.73;;;;;;;7.10;100.00;103487.41;10369178;28;20026;-69
2024/01/27 09:14:04;;;;;;;17.67;7.88;;;;;;;7.09;100.00;103487.53;10368446;28;20100;-69
2024/01/27 09:19:05;;;;;;;14.57;7.90;;;;;;;7.17;100.00;103491.38;10367527;28;20203;-70
2024/01/27 09:24:05;;;;;;;10.48;7.75;;;;;;;7.84;100.00;103492.75;10368210;28;20070;-67
2024/01/27 09:29:06;;;;;;;21.45;9.13;;;;;;;8.51;100.00;103484.88;10367258;28;20087;-68
2024/01/27 09:34:07;;;;;;;15.27;7.28;;;;;;;8.83;100.00;103478.75;10369495;28;20565;-67
2024/01/27 09:39:08;;;;;;;11.90;7.07;;;;;;;9.08;100.00;103493.88;10368493;28;20105;-69
2024/01/27 09:44:08;;;;;;;12.23;7.35;;;;;;;8.71;100.00;103495.94;10367808;28;20116;-68
2024/01/27 09:49:09;;;;;;;10.45;6.85;;;;;;;9.02;100.00;103508.72;10350081;28;20140;-66
2024/01/27 09:54:10;;;;;;;21.58;8.88;;;;;;;9.32;100.00;103515.34;10350573;28;20050;-66
2024/01/27 09:59:14;;;;;;;10.15;6.47;;;;;;;9.80;100.00;103527.66;10368173;28;20042;-68
2024/01/27 10:04:14;;;;;;;10.20;7.10;;;;;;;9.49;100.00;103522.94;10368736;28;20025;-67
2024/01/27 10:09:15;;;;;;;24.55;7.68;;;;;;;9.72;100.00;103525.59;10365865;28;20058;-67
2024/01/27 10:14:15;;;;;;;14.10;6.50;;;;;;;10.14;100.00;103534.66;10366104;28;20045;-67
2024/01/27 10:19:17;;;;;;;14.25;7.22;;;;;;;10.25;100.00;103520.22;10398374;28;20041;-67
2024/01/27 10:24:18;;;;;;;13.52;6.75;;;;;;;10.46;100.00;103520.22;10364778;28;20413;-64
2024/01/27 10:29:18;;;;;;;28.00;7.43;;;;;;;10.06;100.00;103517.34;10337321;28;20085;-68
2024/01/27 10:34:22;;;;;;;14.32;6.85;;;;;;;10.22;100.00;103515.91;10407374;28;20037;-68
2024/01/27 10:39:23;;;;;;;6.72;5.93;;;;;;;10.50;100.00;103528.94;10407605;28;20500;-67
2024/01/27 10:44:25;;;;;;;10.85;5.93;;;;;;;10.43;100.00;103526.78;10407347;28;20048;-69
2024/01/27 10:49:26;;;;;;;14.00;6.03;;;;;;;10.75;100.00;103535.81;10391011;28;20103;-67
2024/01/27 10:54:26;;;;;;;10.95;5.82;;;;;;;10.96;100.00;103527.66;10412945;28;20099;-68
2024/01/27 10:59:28;;;;;;;13.13;6.70;;;;;;;10.96;100.00;103525.78;10414446;28;20072;-68
2024/01/27 11:04:28;;;;;;;16.92;7.60;;;;;;;11.07;100.00;103516.69;10412952;28;20037;-66
2024/01/27 11:09:29;;;;;;;14.80;5.70;;;;;;;11.04;100.00;103525.09;10412957;28;20106;-67
2024/01/27 11:14:29;;;;;;;23.40;6.20;;;;;;;10.92;100.00;103516.22;10413783;28;20033;-67
2024/01/27 11:19:29;;;;;;;11.90;5.80;;;;;;;11.02;100.00;103517.13;10414074;28;20128;-67
2024/01/27 11:24:30;;;;;;;9.85;6.28;;;;;;;11.17;100.00;103506.78;10411531;28;20057;-67
2024/01/27 11:29:32;;;;;;;10.52;6.45;;;;;;;11.07;100.00;103509.44;10413342;28;20041;-67
2024/01/27 11:34:46;;;;;;;17.63;7.43;;;;;;;10.98;100.00;103510.25;10412845;28;20039;-68
2024/01/27 11:39:47;;;;;;;19.73;7.22;;;;;;;10.95;100.00;103510.53;10411990;28;20063;-67
2024/01/27 11:44:48;;;;;;;11.48;5.78;;;;;;;10.65;100.00;103514.06;10395036;28;20124;-69
2024/01/27 11:49:56;;;;;;;11.52;6.45;;;;;;;10.82;100.00;103510.75;10412729;28;20049;-66
2024/01/27 11:54:57;;;;;;;8.75;5.97;;;;;;;11.15;100.00;103503.31;10412013;28;20049;-67
2024/01/27 11:59:58;;;;;;;11.60;5.57;;;;;;;11.20;100.00;103489.34;10394286;28;20400;-68
2024/01/27 12:04:58;;;;;;;31.73;7.82;;;;;;;11.28;100.00;103494.94;10411879;28;20045;-68
2024/01/27 12:09:59;;;;;;;11.98;5.15;;;;;;;11.32;100.00;103482.81;10394378;28;20143;-68
2024/01/27 12:15:00;;;;;;;8.93;6.78;;;;;;;11.10;100.00;103475.75;10354387;28;20049;-68
2024/01/27 12:20:00;;;;;;;20.48;5.82;;;;;;;10.74;100.00;103474.47;10353056;28;20045;-67
2024/01/27 12:25:13;;;;;;;9.85;5.15;;;;;;;10.39;100.00;103459.47;10370137;28;20375;-68
2024/01/27 12:30:14;;;;;;;11.75;5.18;;;;;;;10.25;100.00;103460.63;10370793;28;20037;-69
2024/01/27 12:35:15;;;;;;;28.77;6.35;;;;;;;9.71;100.00;103448.97;10369133;28;20034;-68
2024/01/27 12:40:19;;;;;;;15.43;5.80;;;;;;;9.71;100.00;103465.19;10368764;28;20363;-67
2024/01/27 12:45:20;;;;;;;12.25;5.10;;;;;;;9.92;100.00;103461.66;10352096;28;20082;-69
2024/01/27 12:50:20;;;;;;;12.90;6.22;;;;;;;10.36;100.00;103462.44;10368096;28;20441;-67
2024/01/27 12:55:20;;;;;;;15.27;9.15;;;;;;;10.48;100.00;103450.53;10367482;28;20133;-66
2024/01/27 13:00:22;;;;;;;23.88;10.88;;;;;;;10.32;100.00;103444.75;10368942;28;20099;-66
2024/01/27 13:05:22;;;;;;;12.07;6.22;;;;;;;10.52;100.00;103454.69;10368970;28;20037;-67
2024/01/27 13:10:23;;;;;;;12.65;5.53;;;;;;;10.63;100.00;103451.91;10368652;28;20505;-68
2024/01/27 13:15:25;;;;;;;14.48;6.40;;;;;;;10.45;100.00;103453.50;10368091;28;20053;-67
2024/01/27 13:20:25;;;;;;;17.80;5.30;;;;;;;10.06;100.00;103455.09;10367607;28;20038;-66
2024/01/27 13:25:25;;;;;;;11.32;5.93;;;;;;;9.39;100.00;103453.50;10368555;28;20506;-67
2024/01/27 13:30:27;;;;;;;19.52;5.45;;;;;;;9.14;100.00;103451.97;10369300;28;20084;-68
2024/01/27 13:35:27;;;;;;;7.80;6.65;;;;;;;9.19;100.00;103447.03;10368814;28;20057;-68
2024/01/27 13:40:28;;;;;;;15.52;5.85;;;;;;;8.99;100.00;103445.94;10367250;28;20145;-66
2024/01/27 13:45:28;;;;;;;20.10;7.05;;;;;;;8.76;100.00;103443.28;10350859;28;20432;-67
2024/01/27 13:50:31;;;;;;;17.70;7.63;;;;;;;8.48;100.00;103451.84;10384052;28;20053;-68
2024/01/27 13:55:32;;;;;;;25.00;6.18;;;;;;;8.25;100.00;103450.94;10371336;28;20061;-66
2024/01/27 14:00:34;;;;;;;24.92;7.20;;;;;;;8.30;100.00;103446.03;10368478;28;20065;-67
2024/01/27 14:05:34;;;;;;;19.27;7.07;;;;;;;8.32;100.00;103436.81;10366543;28;20040;-67
2024/01/27 14:10:35;;;;;;;13.52;6.22;;;;;;;8.28;100.00;103439.91;10367389;28;20045;-69
2024/01/27 14:15:36;;;;;;;8.45;6.07;;;;;;;8.11;100.00;103433.97;10373757;28;20040;-68
2024/01/27 14:20:37;;;;;;;20.25;7.22;;;;;;;8.10;100.00;103429.56;10389511;28;20497;-68
2024/01/27 14:25:37;;;;;;;18.05;6.22;;;;;;;7.98;100.00;103427.81;10371477;28;20045;-69
2024/01/27 14:30:39;;;;;;;19.40;7.38;;;;;;;7.87;100.00;103420.53;10374635;28;20115;-68
2024/01/27 14:35:40;;;;;;;17.65;5.85;;;;;;;7.92;100.00;103431.84;10373628;28;20486;-69
2024/01/27 14:40:40;;;;;;;19.98;7.32;;;;;;;7.82;100.00;103422.75;10374951;28;20038;-69
2024/01/27 14:45:42;;;;;;;13.00;7.25;;;;;;;7.96;100.00;103423.50;10371566;28;20061;-68
2024/01/27 14:50:42;;;;;;;18.83;8.32;;;;;;;8.02;100.00;103417.63;10373221;28;20054;-70
2024/01/27 14:55:44;;;;;;;11.07;5.15;;;;;;;8.21;100.00;103408.97;10374351;28;20510;-67
2024/01/27 15:00:51;;;;;;;18.27;8.60;;;;;;;8.24;100.00;103417.69;10374431;28;20069;-68
2024/01/27 15:05:52;;;;;;;19.33;8.60;;;;;;;7.99;100.00;103401.69;10372276;28;20057;-69
2024/01/27 15:10:53;;;;;;;12.50;6.28;;;;;;;7.83;100.00;103412.81;10402001;28;20041;-65
2024/01/27 15:15:54;;;;;;;7.25;5.03;;;;;;;7.63;100.00;103408.94;10412031;28;20050;-69
2024/01/27 15:20:56;;;;;;;17.10;6.07;;;;;;;7.56;100.00;103411.25;10376374;28;20073;-68
2024/01/27 15:25:56;;;;;;;18.65;7.45;;;;;;;7.37;100.00;103400.09;10370626;28;20436;-68
2024/01/27 15:30:56;;;;;;;14.40;6.45;;;;;;;7.26;100.00;103408.16;10371978;28;20042;-68
2024/01/27 15:35:57;;;;;;;17.25;6.13;;;;;;;7.16;100.00;103413.34;10371518;28;20403;-68
2024/01/27 15:40:57;;;;;;;23.60;6.80;;;;;;;6.89;100.00;103413.53;10372084;28;20042;-69
2024/01/27 15:46:03;;;;;;;18.75;7.07;;;;;;;6.78;100.00;103408.06;10370817;28;20048;-70
2024/01/27 15:51:04;;;;;;;19.70;8.00;;;;;;;6.64;100.00;103409.94;10386407;28;20061;-67
2024/01/27 15:56:04;;;;;;;11.75;6.75;;;;;;;6.47;100.00;103418.34;10376919;28;20050;-66
2024/01/27 16:01:05;;;;;;;22.17;7.75;;;;;;;6.26;100.00;103418.91;10370335;28;20100;-66
2024/01/27 16:06:06;;;;;;;19.15;7.57;;;;;;;6.18;100.00;103399.72;10369830;28;20128;-68
2024/01/27 16:11:07;;;;;;;19.15;6.93;;;;;;;5.95;100.00;103409.41;10370148;28;20037;-68
2024/01/27 16:16:07;;;;;;;12.45;7.18;;;;;;;5.89;100.00;103417.00;10369642;28;20127;-68
2024/01/27 16:21:08;;;;;;;11.10;7.53;;;;;;;5.75;100.00;103408.03;10371228;28;20127;-69
2024/01/27 16:26:08;;;;;;;11.98;7.45;;;;;;;5.62;100.00;103420.59;10369162;28;20084;-68
2024/01/27 16:31:09;;;;;;;17.23;9.20;;;;;;;5.56;100.00;103423.69;10370187;28;20041;-66
2024/01/27 16:36:09;;;;;;;15.35;7.82;;;;;;;5.47;100.00;103429.69;10369338;28;20034;-68
2024/01/27 16:41:10;;;;;;;17.83;8.40;;;;;;;5.52;100.00;103433.78;10352166;28;20057;-71
2024/01/27 16:46:10;;;;;;;16.83;7.65;;;;;;;5.49;100.00;103439.38;10369101;28;20068;-70
2024/01/27 16:51:11;;;;;;;12.20;6.53;;;;;;;5.42;100.00;103427.28;10369414;28;20082;-68
2024/01/27 16:56:11;;;;;;;22.50;8.73;;;;;;;5.36;100.00;103425.88;10370060;28;20045;-67
2024/01/27 17:01:12;;;;;;;21.10;9.57;;;;;;;5.32;100.00;103424.34;10369344;28;20116;-68
2024/01/27 17:06:13;;;;;;;19.05;9.55;;;;;;;5.25;100.00;103430.22;10367892;28;20089;-68
2024/01/27 17:11:15;;;;;;;28.83;7.55;;;;;;;5.24;100.00;103428.53;10369420;28;20048;-69
2024/01/27 17:16:16;;;;;;;13.20;10.15;;;;;;;5.22;100.00;103425.91;10368960;28;20045;-68
2024/01/27 17:21:19;;;;;;;25.65;9.80;;;;;;;5.19;100.00;103412.69;10369010;28;20038;-70
2024/01/27 17:26:20;;;;;;;17.95;10.05;;;;;;;5.22;100.00;103408.94;10368608;28;20476;-67
2024/01/27 17:31:20;;;;;;;14.68;9.25;;;;;;;5.22;100.00;103408.94;10367803;28;20037;-69
2024/01/27 17:36:20;;;;;;;22.75;10.45;;;;;;;5.20;100.00;103410.84;10367089;28;20085;-69
2024/01/27 17:41:21;;;;;;;25.25;12.07;;;;;;;5.16;100.00;103399.44;10366827;28;20057;-69
2024/01/27 17:46:21;;;;;;;55.45;29.73;;;;;;;5.11;100.00;103385.47;10367695;28;20029;-68
2024/01/27 17:51:22;;;;;;;31.27;13.02;;;;;;;4.99;100.00;103379.09;10368003;28;20398;-68
2024/01/27 17:56:23;;;;;;;22.65;11.07;;;;;;;4.95;100.00;103382.94;10367347;28;20049;-68
2024/01/27 18:01:23;;;;;;;16.40;9.77;;;;;;;4.81;100.00;103388.31;10368148;28;20038;-68
2024/01/27 18:06:24;;;;;;;27.08;11.68;;;;;;;4.81;100.00;103394.53;10368795;28;20112;-67
2024/01/27 18:11:24;;;;;;;17.13;12.45;;;;;;;4.76;100.00;103399.38;10369598;28;20128;-68
2024/01/27 18:16:25;;;;;;;32.70;13.15;;;;;;;4.69;100.00;103400.72;10370243;28;20030;-69
2024/01/27 18:21:25;;;;;;;22.25;11.13;;;;;;;4.56;100.00;103403.31;10368630;28;20129;-67
2024/01/27 18:26:25;;;;;;;31.80;12.93;;;;;;;4.48;100.00;103394.03;10367517;28;20038;-68
2024/01/27 18:31:26;;;;;;;36.42;12.20;;;;;;;4.42;100.00;103381.84;10367572;28;20046;-68
2024/01/27 18:36:27;;;;;;;29.20;12.80;;;;;;;4.34;100.00;103392.19;10366145;28;20518;-69
2024/01/27 18:41:27;;;;;;;25.10;12.85;;;;;;;4.35;100.00;103393.94;10365758;28;20036;-67
2024/01/27 18:46:27;;;;;;;20.77;10.60;;;;;;;4.25;100.00;103390.09;10367131;28;20305;-68
2024/01/27 18:51:28;;;;;;;14.85;10.70;;;;;;;4.24;100.00;103388.34;10366592;28;20038;-68
2024/01/27 18:56:28;;;;;;;28.30;13.73;;;;;;;4.22;100.00;103384.91;10364814;28;20038;-69
2024/01/27 19:01:29;;;;;;;23.67;9.25;;;;;;;4.20;100.00;103390.38;10365205;28;20080;-67
2024/01/27 19:06:30;;;;;;;25.45;11.20;;;;;;;4.11;100.00;103396.28;10364983;28;20497;-69
2024/01/27 19:11:31;;;;;;;20.33;10.10;;;;;;;4.14;100.00;103396.09;10369224;28;20034;-68
2024/01/27 19:16:31;;;;;;;26.02;11.10;;;;;;;4.08;100.00;103394.66;10356131;28;20069;-68
2024/01/27 19:21:31;;;;;;;24.42;11.95;;;;;;;3.95;100.00;103393.69;10372374;28;20466;-68
2024/01/27 19:26:32;;;;;;;26.75;11.43;;;;;;;3.84;100.00;103394.34;10372672;28;20544;-67
2024/01/27 19:31:33;;;;;;;24.02;9.88;;;;;;;3.86;100.00;103392.44;10357210;28;20034;-68
2024/01/27 19:36:34;;;;;;;32.60;11.88;;;;;;;3.90;100.00;103391.28;10372967;28;20038;-67
2024/01/27 19:41:34;;;;;;;24.48;12.15;;;;;;;3.94;100.00;103394.63;10373042;28;20038;-67
2024/01/27 19:46:35;;;;;;;20.13;10.48;;;;;;;3.99;100.00;103400.59;10373859;28;20068;-68
2024/01/27 19:51:41;;;;;;;26.58;12.07;;;;;;;3.91;100.00;103398.38;10373325;28;20038;-68
2024/01/27 19:56:42;;;;;;;27.08;12.75;;;;;;;3.95;100.00;103399.91;10371868;28;20139;-68
2024/01/27 20:01:42;;;;;;;21.00;9.77;;;;;;;3.91;100.00;103390.31;10372663;28;20128;-68
2024/01/27 20:06:43;;;;;;;20.33;10.40;;;;;;;3.90;100.00;103387.75;10372395;28;20034;-69
2024/01/27 20:11:43;;;;;;;26.30;10.10;;;;;;;3.83;100.00;103370.28;10372261;28;20049;-69
2024/01/27 20:16:46;;;;;;;35.00;12.77;;;;;;;3.73;100.00;103367.31;10372034;28;20143;-68
2024/01/27 20:21:47;;;;;;;17.40;9.52;;;;;;;3.57;100.00;103353.09;10372211;28;20034;-68
2024/01/27 20:26:48;;;;;;;16.95;10.38;;;;;;;3.55;100.00;103358.56;10353146;28;20037;-68
2024/01/27 20:31:48;;;;;;;24.45;7.93;;;;;;;3.49;100.00;103353.56;10370928;28;20037;-68
2024/01/27 20:36:48;;;;;;;32.45;10.10;;;;;;;3.48;100.00;103352.72;10370700;28;20620;-69
2024/01/27 20:41:49;;;;;;;16.38;9.73;;;;;;;3.46;100.00;103345.72;10385875;28;20129;-68
2024/01/27 20:46:49;;;;;;;27.75;9.02;;;;;;;3.43;100.00;103345.91;10369331;28;20358;-68
2024/01/27 20:51:51;;;;;;;13.10;8.90;;;;;;;3.35;100.00;103346.38;10368585;28;20045;-68
2024/01/27 20:56:54;;;;;;;24.42;11.65;;;;;;;3.20;100.00;103337.41;10369531;28;20375;-67
2024/01/27 21:01:58;;;;;;;23.38;12.30;;;;;;;3.25;100.00;103340.69;10369940;28;20045;-67
2024/01/27 21:06:59;;;;;;;18.95;10.20;;;;;;;3.21;100.00;103332.91;10369969;28;20046;-67
2024/01/27 21:11:59;;;;;;;18.95;9.10;;;;;;;3.20;100.00;103331.19;10370622;28;20073;-69
2024/01/27 21:16:59;;;;;;;20.13;10.10;;;;;;;3.10;100.00;103327.31;10351637;28;20069;-68
2024/01/27 21:22:00;;;;;;;16.23;8.40;;;;;;;3.14;100.00;103331.53;10368453;28;20045;-67
2024/01/27 21:27:00;;;;;;;14.60;8.57;;;;;;;3.18;100.00;103323.22;10370050;28;20026;-68
2024/01/27 21:32:01;;;;;;;20.95;9.30;;;;;;;3.24;100.00;103327.38;10367825;28;20585;-67
2024/01/27 21:37:01;;;;;;;20.52;11.32;;;;;;;3.31;100.00;103344.78;10368648;28;20460;-68
2024/01/27 21:42:03;;;;;;;15.20;9.43;;;;;;;3.43;100.00;103346.75;10367599;28;20037;-68
2024/01/27 21:47:04;;;;;;;15.30;9.00;;;;;;;3.49;100.00;103333.00;10366964;28;20148;-68
2024/01/27 21:52:04;;;;;;;24.23;9.77;;;;;;;3.56;100.00;103333.50;10399870;28;20038;-69
2024/01/27 21:57:05;;;;;;;20.98;9.57;;;;;;;3.54;100.00;103323.81;10367861;28;20049;-69
2024/01/27 22:02:05;;;;;;;22.27;10.32;;;;;;;3.46;100.00;103325.16;10368579;28;20048;-68
2024/01/27 22:07:06;;;;;;;20.00;8.48;;;;;;;3.31;100.00;103306.44;10368968;28;20450;-68
2024/01/27 22:12:06;;;;;;;23.02;9.52;;;;;;;3.12;100.00;103293.28;10369997;28;20187;-67
2024/01/27 22:17:07;;;;;;;18.20;9.02;;;;;;;2.91;100.00;103279.34;10371687;28;20044;-67
2024/01/27 22:22:07;;;;;;;15.68;7.53;;;;;;;2.77;100.00;103288.16;10370400;28;20041;-68
2024/01/27 22:27:08;;;;;;;15.95;9.30;;;;;;;2.70;100.00;103281.44;10367354;28;20046;-69
2024/01/27 22:32:08;;;;;;;14.30;8.90;;;;;;;2.68;100.00;103269.94;10367673;28;20070;-70
2024/01/27 22:37:08;;;;;;;14.27;9.13;;;;;;;2.74;100.00;103256.22;10367498;28;20080;-67
2024/01/27 22:42:09;;;;;;;22.60;9.20;;;;;;;2.76;100.00;103248.97;10367245;28;20061;-69